Calmar, Canada
Current Conditions -  °F | °C
As of 6:00 PM on Saturday 20 Dec 2014 (Local Time) from CYEG Reporting Station
Broken Clouds Broken Clouds  
Wind Chill: 13°   Ceiling: 23000
Heat Index: 23°   Visibility: 15mi
Dew Point: 18°   Wind: 9mph
Humidity: 80%   Direction: 130°SE
Pressure: 29.45"   Gusts: NA
Location:  53.25°N, 113.78°W
Report Text: CYEG 210100Z 13008KT 15SM FEW170 BKN230 M05/M08 A2945 RMK AC2CI3 SLP016
Loading
Personal Weather Stations






























Interactive Weather Map New forecast layout! Learn more

10-Day Weather Forecast

Advertisements
Track Severe Weather on mobile